createdAt,value
2023-04-26T00:02:18.125Z,8.63
2023-04-26T00:05:21.118Z,9.03
2023-04-26T00:08:25.414Z,7.73
2023-04-26T00:11:28.129Z,6.83
2023-04-26T00:14:30.846Z,7.50
2023-04-26T00:17:33.640Z,8.73
2023-04-26T00:20:36.438Z,8.50
2023-04-26T00:23:40.728Z,7.93
2023-04-26T00:26:43.498Z,7.77
2023-04-26T00:29:46.345Z,8.53
2023-04-26T00:32:49.218Z,9.13
2023-04-26T00:35:51.997Z,9.20
2023-04-26T00:38:56.130Z,9.10
2023-04-26T00:41:59.120Z,7.83
2023-04-26T00:45:02.074Z,8.50
2023-04-26T00:48:05.381Z,8.23
2023-04-26T00:51:08.559Z,8.67
2023-04-26T00:54:13.988Z,8.47
2023-04-26T00:57:16.744Z,9.63
2023-04-26T01:00:19.806Z,7.87
2023-04-26T01:03:22.732Z,7.13
2023-04-26T01:06:26.196Z,6.77
2023-04-26T01:09:32.544Z,8.27
2023-04-26T01:12:35.312Z,8.17
2023-04-26T01:15:38.421Z,7.13
2023-04-26T01:18:42.993Z,7.90
2023-04-26T01:21:45.836Z,6.80
2023-04-26T01:24:52.580Z,7.20
2023-04-26T01:27:55.342Z,7.40
2023-04-26T01:30:58.138Z,7.00
2023-04-26T01:34:01.114Z,8.20
2023-04-26T01:37:03.908Z,7.23
2023-04-26T01:40:09.745Z,8.00
2023-04-26T01:43:12.690Z,9.27
2023-04-26T01:46:15.523Z,7.90
2023-04-26T01:49:18.286Z,7.83
2023-04-26T01:52:21.847Z,7.80
2023-04-26T01:55:25.947Z,8.60
2023-04-26T01:58:28.734Z,6.97
2023-04-26T02:01:32.386Z,7.10
2023-04-26T02:04:35.173Z,6.87
2023-04-26T02:07:37.921Z,6.77
2023-04-26T02:10:42.044Z,6.67
2023-04-26T02:13:44.793Z,5.83
2023-04-26T02:16:47.591Z,5.47
2023-04-26T02:19:50.724Z,5.43
2023-04-26T02:22:53.492Z,4.97
2023-04-26T02:25:57.965Z,5.07
2023-04-26T02:29:00.728Z,5.77
2023-04-26T02:32:04.181Z,5.27
2023-04-26T02:35:07.900Z,5.73
2023-04-26T02:38:10.697Z,5.30
2023-04-26T02:41:14.839Z,5.83
2023-04-26T02:44:17.702Z,6.50
2023-04-26T02:47:20.589Z,4.67
2023-04-26T02:50:23.724Z,5.27
2023-04-26T02:53:26.468Z,5.43
2023-04-26T02:56:30.583Z,6.13
2023-04-26T02:59:33.956Z,6.13
2023-04-26T03:02:37.397Z,5.60
2023-04-26T03:05:40.299Z,5.90
2023-04-26T03:08:43.043Z,6.07
2023-04-26T03:11:49.588Z,5.23
2023-04-26T03:14:52.921Z,6.20
2023-04-26T03:17:55.749Z,5.87
2023-04-26T03:20:58.518Z,5.60
2023-04-26T03:24:01.273Z,5.87
2023-04-26T03:27:05.408Z,5.60
2023-04-26T03:30:09.533Z,5.43
2023-04-26T03:33:13.442Z,6.73
2023-04-26T03:36:17.221Z,7.30
2023-04-26T03:39:19.998Z,6.00
2023-04-26T03:42:24.154Z,5.67
2023-04-26T03:45:27.090Z,7.13
2023-04-26T03:48:29.855Z,6.80
2023-04-26T03:51:32.747Z,6.50
2023-04-26T03:54:36.062Z,6.47
2023-04-26T03:57:40.205Z,7.23
2023-04-26T04:00:43.457Z,6.30
2023-04-26T04:03:46.363Z,7.57
2023-04-26T04:06:49.328Z,6.80
2023-04-26T04:09:52.104Z,7.50
2023-04-26T04:12:56.363Z,6.83
2023-04-26T04:15:59.172Z,6.93
2023-04-26T04:19:02.174Z,7.27
2023-04-26T04:22:04.937Z,7.70
2023-04-26T04:25:09.287Z,7.00
2023-04-26T04:28:13.531Z,6.03
2023-04-26T04:31:17.416Z,6.83
2023-04-26T04:34:20.409Z,6.47
2023-04-26T04:37:23.170Z,6.23
2023-04-26T04:40:26.228Z,6.60
2023-04-26T04:43:30.303Z,6.73
2023-04-26T04:46:33.105Z,6.53
2023-04-26T04:49:37.411Z,7.43
2023-04-26T04:52:40.180Z,7.70
2023-04-26T04:55:42.943Z,7.57
2023-04-26T04:58:47.708Z,8.33
2023-04-26T05:01:50.746Z,8.33
2023-04-26T05:04:53.862Z,9.97
2023-04-26T05:07:56.645Z,6.80
2023-04-26T05:10:59.404Z,8.30
2023-04-26T05:14:03.514Z,7.37
2023-04-26T05:17:06.478Z,7.97
2023-04-26T05:20:11.136Z,7.67
2023-04-26T05:23:13.935Z,7.90
2023-04-26T05:26:17.930Z,8.57
2023-04-26T05:29:22.015Z,14.43
2023-04-26T05:32:24.791Z,7.83
2023-04-26T05:35:27.541Z,8.90
2023-04-26T05:38:30.460Z,7.83
2023-04-26T05:41:33.257Z,7.97
2023-04-26T05:44:37.356Z,8.07
2023-04-26T05:47:40.167Z,8.20
2023-04-26T05:50:42.949Z,8.10
2023-04-26T05:53:45.686Z,8.27
2023-04-26T05:56:48.470Z,7.70
2023-04-26T05:59:52.541Z,9.63
2023-04-26T06:02:55.521Z,8.47
2023-04-26T06:05:59.857Z,9.47
2023-04-26T06:09:02.722Z,10.07
2023-04-26T06:12:05.947Z,10.13
2023-04-26T06:15:11.438Z,9.53
2023-04-26T06:18:14.282Z,9.13
2023-04-26T06:21:17.055Z,9.87
2023-04-26T06:24:19.798Z,10.57
2023-04-26T06:27:22.568Z,8.20
2023-04-26T06:30:26.645Z,9.20
2023-04-26T06:33:29.474Z,8.67
2023-04-26T06:36:32.809Z,9.33
2023-04-26T06:39:35.712Z,10.27
2023-04-26T06:42:38.951Z,10.67
2023-04-26T06:45:43.739Z,10.33
2023-04-26T06:48:46.512Z,9.33
2023-04-26T06:51:49.331Z,8.40
2023-04-26T06:54:56.879Z,7.77
2023-04-26T06:58:00.446Z,8.90
2023-04-26T07:01:06.314Z,7.47
2023-04-26T07:04:10.874Z,8.07
2023-04-26T07:07:14.394Z,7.57
2023-04-26T07:10:17.243Z,8.27
2023-04-26T07:13:20.010Z,8.87
2023-04-26T07:16:24.524Z,8.80
2023-04-26T07:19:27.327Z,7.43
2023-04-26T07:22:30.068Z,8.27
2023-04-26T07:25:32.818Z,7.53
2023-04-26T07:28:35.699Z,7.43
2023-04-26T07:31:39.979Z,8.00
2023-04-26T07:34:42.911Z,8.07
2023-04-26T07:37:45.797Z,6.57
2023-04-26T07:40:48.577Z,7.10
2023-04-26T07:43:51.638Z,6.60
2023-04-26T07:46:55.975Z,10.47
2023-04-26T07:49:58.937Z,7.50
2023-04-26T07:53:01.850Z,6.10
2023-04-26T07:56:07.016Z,7.43
2023-04-26T07:59:09.791Z,9.47
2023-04-26T08:02:14.197Z,8.97
2023-04-26T08:05:17.796Z,6.97
2023-04-26T08:08:20.903Z,7.40
2023-04-26T08:11:23.898Z,6.77
2023-04-26T08:14:27.180Z,10.30
2023-04-26T08:17:31.518Z,6.90
2023-04-26T08:20:34.464Z,8.07
2023-04-26T08:23:37.748Z,8.13
2023-04-26T08:26:41.108Z,7.13
2023-04-26T08:29:43.948Z,6.43
2023-04-26T08:32:48.157Z,8.03
2023-04-26T08:35:50.961Z,8.03
2023-04-26T08:38:53.781Z,6.40
2023-04-26T08:41:58.529Z,9.40
2023-04-26T08:45:02.905Z,8.20
2023-04-26T08:48:14.748Z,7.40
2023-04-26T08:51:19.448Z,6.20
2023-04-26T08:54:23.204Z,6.20
2023-04-26T08:57:26.259Z,6.97
2023-04-26T09:00:29.911Z,9.03
2023-04-26T09:03:34.307Z,6.70
2023-04-26T09:06:37.495Z,5.73
2023-04-26T09:09:43.563Z,5.73
2023-04-26T09:12:46.348Z,7.77
2023-04-26T09:15:49.667Z,5.43
2023-04-26T09:18:57.293Z,8.20
2023-04-26T09:22:00.649Z,7.03
2023-04-26T09:25:04.940Z,8.27
2023-04-26T09:28:22.437Z,6.70
2023-04-26T09:31:39.220Z,5.67
2023-04-26T09:34:47.649Z,7.93
2023-04-26T09:37:59.370Z,6.47
2023-04-26T09:41:04.099Z,4.53
2023-04-26T09:44:07.848Z,8.33
2023-04-26T09:47:12.705Z,4.57
2023-04-26T09:50:27.248Z,4.67
2023-04-26T09:53:34.213Z,6.07
2023-04-26T09:56:37.179Z,4.53
2023-04-26T09:59:44.888Z,4.07
2023-04-26T10:02:48.411Z,3.33
2023-04-26T10:05:53.109Z,4.17
2023-04-26T10:08:56.502Z,4.10
2023-04-26T10:12:00.037Z,3.17
2023-04-26T10:15:05.308Z,3.33
2023-04-26T10:18:08.424Z,3.67
2023-04-26T10:21:17.826Z,5.23
2023-04-26T10:24:20.936Z,8.07
2023-04-26T10:27:48.258Z,4.67
2023-04-26T10:30:58.891Z,6.23
2023-04-26T10:34:21.154Z,3.77
2023-04-26T10:37:25.455Z,3.50
2023-04-26T10:40:32.332Z,2.63
2023-04-26T10:43:35.107Z,4.23
2023-04-26T10:46:40.894Z,2.73
2023-04-26T10:49:46.884Z,2.30
2023-04-26T10:53:08.677Z,3.33
2023-04-26T10:56:12.318Z,3.00
2023-04-26T11:02:45.867Z,3.20
2023-04-26T11:05:55.991Z,2.67
2023-04-26T11:09:01.324Z,3.47
2023-04-26T11:12:06.240Z,3.53
2023-04-26T11:15:09.879Z,2.90
2023-04-26T11:18:12.682Z,2.77
2023-04-26T11:21:18.757Z,4.37
2023-04-26T11:24:27.905Z,2.20
2023-04-26T11:27:30.676Z,3.40
2023-04-26T11:30:34.137Z,3.83
2023-04-26T11:33:36.968Z,2.27
2023-04-26T11:36:40.034Z,4.47
2023-04-26T11:39:46.650Z,3.90
2023-04-26T11:42:49.585Z,3.77
2023-04-26T11:45:52.521Z,4.10
2023-04-26T11:48:56.304Z,2.70
2023-04-26T11:51:59.977Z,3.07
2023-04-26T11:55:06.186Z,4.13
2023-04-26T11:58:14.157Z,4.37
2023-04-26T12:01:23.858Z,6.53
2023-04-26T12:04:30.380Z,3.93
2023-04-26T12:07:37.574Z,3.17
2023-04-26T12:10:42.004Z,5.07
2023-04-26T12:13:46.507Z,3.37
2023-04-26T12:16:49.339Z,3.17
2023-04-26T12:19:52.185Z,2.97
2023-04-26T12:23:06.182Z,2.47
2023-04-26T12:26:11.991Z,3.40
2023-04-26T12:29:14.928Z,2.87
2023-04-26T12:32:18.522Z,5.30
2023-04-26T12:35:22.560Z,4.17
2023-04-26T12:38:25.464Z,3.97
2023-04-26T12:41:29.601Z,3.10
2023-04-26T12:44:32.354Z,4.10
2023-04-26T12:47:35.489Z,4.07
2023-04-26T12:50:38.270Z,3.40
2023-04-26T12:53:41.246Z,4.00
2023-04-26T12:56:46.016Z,5.23
2023-04-26T12:59:48.868Z,4.00
2023-04-26T13:02:52.041Z,3.17
2023-04-26T13:05:55.207Z,2.60
2023-04-26T13:08:58.039Z,6.43
2023-04-26T13:12:03.026Z,5.83
2023-04-26T13:15:06.709Z,4.17
2023-04-26T13:18:09.611Z,3.30
2023-04-26T13:21:13.218Z,4.80
2023-04-26T13:24:16.129Z,2.57
2023-04-26T13:27:20.441Z,2.93
2023-04-26T13:30:23.275Z,4.43
2023-04-26T13:33:26.340Z,2.13
2023-04-26T13:36:29.296Z,3.00
2023-04-26T13:39:32.242Z,4.60
2023-04-26T13:42:36.432Z,2.30
2023-04-26T13:45:39.454Z,5.80
2023-04-26T13:48:42.366Z,1.70
2023-04-26T13:51:45.146Z,2.53
2023-04-26T13:54:48.078Z,1.47
2023-04-26T13:57:52.489Z,1.63
2023-04-26T14:00:55.276Z,2.40
2023-04-26T14:03:58.259Z,3.93
2023-04-26T14:07:01.089Z,8.50
2023-04-26T14:10:04.224Z,7.27
2023-04-26T14:13:08.324Z,2.77
2023-04-26T14:16:11.333Z,2.47
2023-04-26T14:19:15.333Z,3.03
2023-04-26T14:22:18.105Z,4.90
2023-04-26T14:25:21.345Z,2.70
2023-04-26T14:28:25.429Z,2.17
2023-04-26T14:31:30.134Z,3.87
2023-04-26T14:34:32.903Z,3.57
2023-04-26T14:37:36.902Z,3.33
2023-04-26T14:40:39.697Z,2.17
2023-04-26T14:43:45.687Z,2.73
2023-04-26T14:46:48.779Z,6.77
2023-04-26T14:49:51.730Z,3.27
2023-04-26T14:52:54.937Z,3.03
2023-04-26T14:55:57.903Z,5.03
2023-04-26T14:59:02.415Z,3.33
2023-04-26T15:02:05.550Z,3.40
2023-04-26T15:05:09.334Z,2.30
2023-04-26T15:08:12.146Z,2.47
2023-04-26T15:11:14.880Z,4.00
2023-04-26T15:14:18.940Z,2.90
2023-04-26T15:17:21.663Z,2.70
2023-04-26T15:20:24.455Z,2.50
2023-04-26T15:23:27.517Z,2.80
2023-04-26T15:26:31.171Z,2.50
2023-04-26T15:29:35.943Z,3.23
2023-04-26T15:32:38.720Z,2.70
2023-04-26T15:35:41.477Z,2.30
2023-04-26T15:38:45.320Z,2.10
2023-04-26T15:41:48.129Z,2.20
2023-04-26T15:44:52.202Z,2.37
2023-04-26T15:47:55.172Z,6.33
2023-04-26T15:50:58.250Z,2.97
2023-04-26T15:54:00.982Z,1.97
2023-04-26T15:57:04.007Z,3.30
2023-04-26T16:00:12.705Z,2.80
2023-04-26T16:03:15.778Z,3.10
2023-04-26T16:06:18.621Z,4.27
2023-04-26T16:09:25.514Z,3.87
2023-04-26T16:12:28.801Z,5.60
2023-04-26T16:15:32.938Z,4.00
2023-04-26T16:18:35.818Z,1.73
2023-04-26T16:21:39.641Z,2.53
2023-04-26T16:24:42.400Z,1.90
2023-04-26T16:27:45.154Z,2.20
2023-04-26T16:30:49.247Z,3.03
2023-04-26T16:33:52.592Z,2.37
2023-04-26T16:36:55.448Z,2.00
2023-04-26T16:39:58.163Z,2.30
2023-04-26T16:43:00.940Z,2.67
2023-04-26T16:46:06.478Z,3.23
2023-04-26T16:49:10.471Z,1.77
2023-04-26T16:52:13.372Z,2.20
2023-04-26T16:55:16.309Z,5.33
2023-04-26T16:58:19.654Z,1.93
2023-04-26T17:01:24.343Z,5.43
2023-04-26T17:04:27.386Z,2.20
2023-04-26T17:07:30.407Z,3.07
2023-04-26T17:10:35.144Z,3.67
2023-04-26T17:13:38.155Z,2.33
2023-04-26T17:16:42.459Z,1.83
2023-04-26T17:19:45.663Z,3.13
2023-04-26T17:22:48.520Z,2.77
2023-04-26T17:25:53.361Z,2.27
2023-04-26T17:28:58.057Z,2.03
2023-04-26T17:32:02.311Z,2.27
2023-04-26T17:35:05.889Z,3.00
2023-04-26T17:38:08.792Z,2.43
2023-04-26T17:41:13.410Z,3.03
2023-04-26T17:44:16.785Z,2.77
2023-04-26T17:47:20.991Z,3.00
2023-04-26T17:50:24.017Z,2.20
2023-04-26T17:53:27.360Z,2.37
2023-04-26T17:56:30.482Z,1.80
2023-04-26T17:59:33.432Z,1.93
2023-04-26T18:02:38.182Z,2.30
2023-04-26T18:05:41.550Z,1.63
2023-04-26T18:08:44.906Z,2.37
2023-04-26T18:11:48.072Z,4.83
2023-04-26T18:14:51.622Z,2.30
2023-04-26T18:17:56.080Z,3.00
2023-04-26T18:20:59.000Z,1.70
2023-04-26T18:24:01.943Z,2.80
2023-04-26T18:27:05.295Z,3.63
2023-04-26T18:30:09.325Z,2.60
2023-04-26T18:33:13.591Z,2.60
2023-04-26T18:36:17.466Z,2.60
2023-04-26T18:39:20.369Z,3.40
2023-04-26T18:42:23.269Z,2.90
2023-04-26T18:45:26.269Z,2.27
2023-04-26T18:48:30.872Z,2.10
2023-04-26T18:51:33.900Z,2.83
2023-04-26T18:54:38.389Z,3.80
2023-04-26T18:57:41.376Z,2.73
2023-04-26T19:00:44.253Z,5.83
2023-04-26T19:03:49.276Z,7.33
2023-04-26T19:06:52.389Z,9.00
2023-04-26T19:09:59.722Z,48.50
2023-04-26T19:13:03.405Z,29.03
2023-04-26T19:16:07.136Z,12.70
2023-04-26T19:19:12.108Z,9.47
2023-04-26T19:22:14.999Z,7.80
2023-04-26T19:25:20.514Z,7.07
2023-04-26T19:28:23.452Z,8.40
2023-04-26T19:31:26.509Z,7.90
2023-04-26T19:34:32.217Z,7.90
2023-04-26T19:37:35.164Z,7.83
2023-04-26T19:40:38.751Z,7.07
2023-04-26T19:43:43.882Z,6.87
2023-04-26T19:46:48.492Z,7.00
2023-04-26T19:50:04.029Z,6.83
2023-04-26T19:53:07.380Z,7.50
2023-04-26T19:56:15.350Z,5.43
2023-04-26T19:59:21.648Z,5.50
2023-04-26T20:02:27.812Z,8.13
2023-04-26T20:05:32.136Z,6.23
2023-04-26T20:08:35.313Z,6.33
2023-04-26T20:11:38.452Z,9.10
2023-04-26T20:14:41.580Z,15.67
2023-04-26T20:17:49.075Z,17.63
2023-04-26T20:20:55.360Z,16.23
2023-04-26T20:23:58.480Z,15.53
2023-04-26T20:27:01.939Z,15.83
2023-04-26T20:30:05.540Z,12.10
2023-04-26T20:33:08.534Z,11.50
2023-04-26T20:36:12.934Z,13.30
2023-04-26T20:39:30.099Z,15.27
2023-04-26T20:42:33.333Z,10.57
2023-04-26T20:45:36.196Z,12.90
2023-04-26T20:48:39.105Z,12.13
2023-04-26T20:51:43.374Z,9.00
2023-04-26T20:54:46.284Z,9.87
2023-04-26T20:57:49.373Z,9.00
2023-04-26T21:00:54.001Z,14.07
2023-04-26T21:03:57.691Z,9.00
2023-04-26T21:07:02.007Z,7.77
2023-04-26T21:10:05.296Z,8.17
2023-04-26T21:13:08.152Z,15.60
2023-04-26T21:16:11.208Z,13.17
2023-04-26T21:19:14.131Z,7.97
2023-04-26T21:22:18.378Z,8.77
2023-04-26T21:25:21.707Z,8.50
2023-04-26T21:28:24.612Z,9.10
2023-04-26T21:31:27.506Z,8.50
2023-04-26T21:34:30.384Z,8.97
2023-04-26T21:37:34.670Z,8.97
2023-04-26T21:40:37.568Z,8.43
2023-04-26T21:43:40.507Z,9.40
2023-04-26T21:46:43.615Z,10.10
2023-04-26T21:49:46.591Z,12.67
2023-04-26T21:52:50.894Z,9.87
2023-04-26T21:55:54.548Z,8.00
2023-04-26T21:58:57.430Z,6.70
2023-04-26T22:02:01.161Z,7.07
2023-04-26T22:05:04.178Z,7.90
2023-04-26T22:08:08.554Z,6.93
2023-04-26T22:11:11.462Z,12.43
2023-04-26T22:14:14.427Z,10.43
2023-04-26T22:17:17.330Z,9.10
2023-04-26T22:20:20.362Z,9.67
2023-04-26T22:23:24.668Z,6.93
2023-04-26T22:26:27.596Z,8.80
2023-04-26T22:29:31.040Z,8.53
2023-04-26T22:32:34.006Z,10.93
2023-04-26T22:35:36.961Z,9.13
2023-04-26T22:38:41.467Z,8.10
2023-04-26T22:41:44.388Z,9.83
2023-04-26T22:44:47.609Z,8.97
2023-04-26T22:47:50.561Z,8.53
2023-04-26T22:50:53.541Z,12.77
2023-04-26T22:53:57.768Z,11.50
2023-04-26T22:57:01.486Z,11.63
2023-04-26T23:00:05.186Z,12.00
2023-04-26T23:03:08.278Z,14.03
2023-04-26T23:06:11.327Z,15.83
2023-04-26T23:09:15.855Z,13.83
2023-04-26T23:12:19.930Z,9.07
2023-04-26T23:15:23.576Z,9.63
2023-04-26T23:18:26.734Z,10.03
2023-04-26T23:21:29.718Z,8.73
2023-04-26T23:24:33.952Z,7.17
2023-04-26T23:27:36.881Z,8.97
2023-04-26T23:30:39.777Z,7.90
2023-04-26T23:33:42.881Z,7.03
2023-04-26T23:36:45.867Z,8.30
2023-04-26T23:39:50.110Z,6.50
2023-04-26T23:42:52.997Z,7.80
2023-04-26T23:45:55.906Z,11.67
2023-04-26T23:48:58.807Z,8.27
2023-04-26T23:52:01.727Z,7.67
2023-04-26T23:55:06.835Z,5.93
2023-04-26T23:58:09.808Z,9.67
